Beecher, IL (60401)

10:24 AM CST on December 04, 2016 (GMT -0600)
Prairie Crossing | | Change Station
Active Advisory: Winter Weather Advisory

Elev 748 ft 41.35 °N, 87.62 °W | Updated 5 seconds ago

Overcast
Overcast
33.6 °F
Feels Like 30 °F
N
4.0
Wind Variable Wind from ENE
Gusts 4.9 mph

Today
High -- | Low -- °F
--% Chance of Precip.
Yesterday
High -- | Low -- °F
Precip. -- in
Pressure 30.09 in
Visibility 7.0 miles
Clouds Scattered Clouds 4500 ft
Mostly Cloudy 5000 ft
Overcast 9500 ft
Windchill 30 °F
Dew Point 14 °F
Humidity 45%
Rainfall 0.00 in
Snow Depth Not available.
7:00 AM 4:21 PM
Waxing Crescent, 23% visible
METAR KIGQ 041615Z AUTO 10006KT 7SM SCT045 BKN050 OVC095 01/M01 A3009 RMK AO2 T00051014
Pressure 30.09 in
Visibility 7.0 miles
Clouds Scattered Clouds 4500 ft
Mostly Cloudy 5000 ft
Overcast 9500 ft
Windchill 30 °F
Dew Point 14 °F
Humidity 45%
Rainfall 0.00 in
Snow Depth Not available.
7:00 AM 4:21 PM
Waxing Crescent, 23% visible
METAR KIGQ 041615Z AUTO 10006KT 7SM SCT045 BKN050 OVC095 01/M01 A3009 RMK AO2 T00051014

10-Day Weather Forecast

Almanac

Astronomy

Dec. 04, 2016 Rise Set
Actual Time
Civil Twilight
Nautical Twilight
Astronomical Twilight
Moon
Length of Visible Light
Length of Day
Tomorrow will be .
, % of the Moon is Illuminated

Today's Extremes

State Highs State Lows

Community

WunderPhotos

Upload Photos

1,955,617 photos uploaded!

WunderBlog® & News

Nearby

Air Quality

  Air Quality AQ Index Pollutant
Not available.

Snow Depth

Station Depth Elevation

Earthquake Activity

City Distance Mag. Time & Date
Minimum magnitude displayed is 2.5.

Coastal Water Temperatures

Place Temperature

Stations

Nearby Weather Stations

Station Location Temp. Windchill Dew Point Humidity Wind Precip. Elev Updated Type
                   

Watches & Warnings

Winter Weather Advisory
Issued: 10:07 AM CST Dec. 4, 2016 – National Weather Service

... Winter Weather Advisory remains in effect until 6 PM CST this
evening...

* timing... snow will continue to increase in intensity through
midday... and should begin to taper around early evening.

* Snow accumulations... 2 to 5 inches of wet snow.

* Main impact... slippery conditions are expected on untreated
surfaces creating hazardous travel.

* Other impacts... visibility may fall to less than a half mile at
times causing an additional travel hazard.

* Note... impacts may be mitigated by mild Road temperatures on
heavily traveled roads... such as the immediate suburbs of the
city of Chicago.

Precautionary/preparedness actions...

A Winter Weather Advisory for snow means that periods of snow
will cause primarily travel difficulties. Be prepared for snow
covered roads and limited visibilities... and use caution while
driving.



Bmd